Time;durP1;ratioP1;P1;durP2;ratioP2;P2;SDS_P1;SDS_P2;PMS_P1;PMS_P2;Temp;Humidity;BMP_temperature;BMP_pressure;BME280_temperature;BME280_humidity;BME280_pressure;Samples;Min_cycle;Max_cycle;Signal;HPM_P1;HPM_P2
2023/08/01 00:01:32;;;;;;;4.10;2.10;;;;;;;21.59;68.06;94423.44;5025027;28;20901;-84
2023/08/01 00:03:57;;;;;;;2.90;2.38;;;;;;;21.53;67.93;94420.06;5021734;28;20223;-84
2023/08/01 00:06:24;;;;;;;4.00;2.30;;;;;;;22.13;68.25;94522.94;5021743;28;20460;-84
2023/08/01 00:08:51;;;;;;;2.92;2.05;;;;;;;21.36;68.39;94409.81;5019829;28;20414;-84
2023/08/01 00:11:16;;;;;;;3.00;2.13;;;;;;;21.66;68.45;94464.06;5021215;28;20409;-84
2023/08/01 00:13:45;;;;;;;2.15;1.83;;;;;;;21.62;68.75;94452.34;5019504;28;20169;-84
2023/08/01 00:16:10;;;;;;;2.65;1.90;;;;;;;21.86;68.51;94490.59;5020049;28;20233;-85
2023/08/01 00:18:36;;;;;;;2.53;2.20;;;;;;;21.73;68.97;94480.56;5019905;28;20411;-84
2023/08/01 00:21:02;;;;;;;4.05;1.77;;;;;;;21.26;68.69;94418.00;5019921;28;20180;-84
2023/08/01 00:23:27;;;;;;;5.53;1.90;;;;;;;21.13;69.25;94385.75;5022287;28;20208;-84
2023/08/01 00:25:53;;;;;;;3.07;2.10;;;;;;;21.31;69.62;94438.56;5019538;28;20477;-84
2023/08/01 00:28:18;;;;;;;2.80;1.77;;;;;;;21.00;68.91;94381.91;5019646;28;20187;-84
2023/08/01 00:30:44;;;;;;;2.33;1.90;;;;;;;21.16;69.65;94417.31;5020054;28;20479;-84
2023/08/01 00:33:10;;;;;;;3.40;2.00;;;;;;;20.76;69.68;94352.47;5020496;28;20796;-84
2023/08/01 00:35:35;;;;;;;4.10;2.20;;;;;;;21.31;69.75;94441.22;5018891;28;20412;-83
2023/08/01 00:38:01;;;;;;;3.85;1.80;;;;;;;21.39;69.53;94435.22;5021108;28;20262;-84
2023/08/01 00:40:34;;;;;;;2.83;1.83;;;;;;;21.35;69.36;94426.19;5019939;28;20410;-84
2023/08/01 00:43:00;;;;;;;4.63;2.60;;;;;;;21.59;69.38;94461.75;5022224;28;20414;-83
2023/08/01 00:45:29;;;;;;;2.87;2.40;;;;;;;21.61;69.21;94478.34;5019668;28;20429;-84
2023/08/01 00:47:56;;;;;;;3.65;2.25;;;;;;;21.71;68.83;94467.47;5021147;28;20262;-82
2023/08/01 00:50:22;;;;;;;5.53;2.53;;;;;;;21.71;68.95;94474.69;5016792;28;20842;-83
2023/08/01 00:52:51;;;;;;;3.17;2.33;;;;;;;21.51;68.81;94437.50;5021784;28;20192;-84
2023/08/01 00:55:19;;;;;;;2.75;1.92;;;;;;;21.14;68.71;94377.44;5020881;28;20164;-84
2023/08/01 00:57:45;;;;;;;3.53;2.20;;;;;;;21.31;68.53;94388.47;5021770;28;20175;-83
2023/08/01 01:00:11;;;;;;;3.22;2.10;;;;;;;21.36;68.30;94409.81;5024537;28;20409;-84
2023/08/01 01:02:38;;;;;;;3.85;1.67;;;;;;;21.60;68.34;94449.16;5019119;28;20560;-84
2023/08/01 01:05:05;;;;;;;3.10;2.20;;;;;;;21.57;68.98;94452.41;5018264;28;20430;-84
2023/08/01 01:07:36;;;;;;;5.03;2.17;;;;;;;21.57;69.06;94455.09;5018748;28;20180;-84
2023/08/01 01:10:02;;;;;;;4.38;1.80;;;;;;;21.73;68.99;94475.22;5021777;28;20168;-84
2023/08/01 01:12:28;;;;;;;6.03;1.70;;;;;;;21.87;68.30;94494.88;5021179;28;20192;-84
2023/08/01 01:14:53;;;;;;;4.07;2.00;;;;;;;21.29;69.00;94409.38;5021011;28;20428;-84
2023/08/01 01:17:21;;;;;;;5.23;2.17;;;;;;;21.36;67.89;94425.13;5019702;28;20420;-84
2023/08/01 01:19:47;;;;;;;4.43;1.90;;;;;;;21.69;68.06;94474.22;5018737;28;20425;-84
2023/08/01 01:22:14;;;;;;;3.10;2.00;;;;;;;21.30;68.03;94405.63;5020789;28;20426;-84
2023/08/01 01:24:44;;;;;;;3.08;1.70;;;;;;;21.54;66.96;94420.81;5021310;28;20295;-84
2023/08/01 01:27:10;;;;;;;2.60;1.63;;;;;;;21.61;66.50;94419.41;5017673;28;20255;-84
2023/08/01 01:29:37;;;;;;;2.97;1.70;;;;;;;21.74;66.44;94436.63;5019926;28;20203;-84
2023/08/01 01:32:04;;;;;;;3.63;1.90;;;;;;;21.55;66.44;94401.00;5018555;28;20418;-84
2023/08/01 01:34:30;;;;;;;2.85;1.95;;;;;;;21.60;66.44;94400.94;5022092;28;20638;-84
2023/08/01 01:36:56;;;;;;;3.50;2.00;;;;;;;21.25;66.50;94341.44;5021349;28;20226;-84
2023/08/01 01:39:21;;;;;;;3.13;1.90;;;;;;;21.40;66.03;94370.66;5020130;28;20424;-84
2023/08/01 01:41:47;;;;;;;2.10;1.87;;;;;;;21.72;66.30;94434.22;5023138;28;20413;-84
2023/08/01 01:44:12;;;;;;;3.42;1.65;;;;;;;21.27;66.59;94350.00;5022728;28;20194;-84
2023/08/01 01:46:38;;;;;;;2.67;1.80;;;;;;;21.64;66.71;94418.81;5018689;28;20442;-84
2023/08/01 01:49:04;;;;;;;3.30;2.03;;;;;;;21.54;66.57;94394.03;5021387;28;20262;-84
2023/08/01 01:51:30;;;;;;;2.63;2.07;;;;;;;21.66;66.58;94421.19;5020485;28;20413;-84
2023/08/01 01:53:56;;;;;;;3.42;1.90;;;;;;;22.05;66.90;94485.25;5021084;28;20418;-84
2023/08/01 01:56:21;;;;;;;3.23;1.73;;;;;;;21.54;66.26;94434.22;5015514;28;20452;-84
2023/08/01 01:58:47;;;;;;;2.53;1.93;;;;;;;21.30;67.09;94402.16;5019734;28;20488;-84
2023/08/01 02:01:12;;;;;;;1.67;1.57;;;;;;;20.84;67.22;94341.19;5020549;28;21323;-84
2023/08/01 02:03:38;;;;;;;3.83;2.03;;;;;;;21.43;66.98;94450.44;5019121;28;20423;-82
2023/08/01 02:06:04;;;;;;;5.93;4.40;;;;;;;21.36;66.39;94417.84;5016178;28;20200;-84
2023/08/01 02:08:30;;;;;;;12.93;9.43;;;;;;;21.60;66.96;94468.72;5015224;28;20936;-84
2023/08/01 02:10:58;;;;;;;10.32;7.38;;;;;;;20.91;66.60;94354.19;5022539;28;20168;-85
2023/08/01 02:13:24;;;;;;;17.25;10.35;;;;;;;21.41;66.51;94433.06;5017052;28;20636;-84
2023/08/01 02:15:50;;;;;;;21.58;15.10;;;;;;;21.41;66.77;94444.59;5014571;28;20493;-84
2023/08/01 02:18:15;;;;;;;16.15;12.20;;;;;;;21.14;66.65;94404.22;5020847;28;20259;-85
2023/08/01 02:20:41;;;;;;;7.80;5.10;;;;;;;20.81;66.90;94365.03;5015986;28;20495;-85
2023/08/01 02:23:07;;;;;;;12.20;8.18;;;;;;;21.21;67.06;94444.84;5018589;28;20444;-84
2023/08/01 02:25:38;;;;;;;10.98;6.80;;;;;;;21.47;66.81;94480.13;5020055;28;20660;-84
2023/08/01 02:28:04;;;;;;;9.93;6.47;;;;;;;21.29;67.11;94457.59;5016837;28;20418;-84
2023/08/01 02:30:29;;;;;;;8.90;6.23;;;;;;;21.08;67.27;94432.94;5018783;28;20425;-84
2023/08/01 02:32:55;;;;;;;8.37;5.43;;;;;;;20.90;67.33;94417.63;5018020;28;20787;-84
2023/08/01 02:35:21;;;;;;;9.48;6.10;;;;;;;21.11;67.48;94447.59;5019373;28;20169;-84
2023/08/01 02:37:47;;;;;;;8.07;4.00;;;;;;;20.88;67.25;94409.06;5022939;28;20676;-84
2023/08/01 02:40:13;;;;;;;8.45;4.05;;;;;;;20.53;67.42;94354.09;5022831;28;20188;-85
2023/08/01 02:42:38;;;;;;;13.40;8.73;;;;;;;21.30;68.15;94491.31;5019024;28;20418;-85
2023/08/01 02:45:07;;;;;;;11.77;6.70;;;;;;;20.73;67.94;94389.72;5022762;28;20195;-85
2023/08/01 02:47:33;;;;;;;9.00;4.90;;;;;;;21.29;67.75;94484.34;5018741;28;20222;-84
2023/08/01 02:49:58;;;;;;;7.63;3.92;;;;;;;20.69;68.12;94392.97;5018368;28;20632;-84
2023/08/01 02:52:24;;;;;;;10.35;4.22;;;;;;;20.21;68.04;94325.28;5022568;28;20414;-84
2023/08/01 02:54:50;;;;;;;5.80;2.78;;;;;;;20.80;68.08;94430.31;5025138;28;20418;-84
2023/08/01 02:57:18;;;;;;;5.40;3.20;;;;;;;20.52;68.68;94397.97;5026299;28;20190;-85
2023/08/01 02:59:43;;;;;;;7.10;3.50;;;;;;;21.14;68.46;94486.41;5022609;28;20180;-85
2023/08/01 03:02:09;;;;;;;10.03;3.30;;;;;;;20.74;68.96;94439.50;5023222;28;20440;-84
2023/08/01 03:04:36;;;;;;;12.40;4.00;;;;;;;20.29;68.66;94388.03;5020728;28;20422;-84
2023/08/01 03:07:01;;;;;;;22.90;7.60;;;;;;;20.68;68.34;94446.75;5022338;28;20216;-84
2023/08/01 03:09:27;;;;;;;12.07;6.65;;;;;;;20.57;68.54;94426.56;5024041;28;21024;-84
2023/08/01 03:11:52;;;;;;;15.30;8.00;;;;;;;20.01;68.63;94338.84;5021740;28;20254;-84
2023/08/01 03:14:18;;;;;;;12.70;7.13;;;;;;;20.48;69.34;94422.91;5023754;28;20797;-84
2023/08/01 03:16:44;;;;;;;11.63;6.57;;;;;;;20.09;69.63;94381.00;5019908;28;20907;-84
2023/08/01 03:19:09;;;;;;;14.75;8.43;;;;;;;20.34;69.62;94420.06;5020457;28;20265;-84
2023/08/01 03:21:35;;;;;;;21.63;12.98;;;;;;;20.29;68.43;94404.88;5022108;28;20195;-85
2023/08/01 03:24:02;;;;;;;23.13;13.53;;;;;;;20.67;68.24;94482.59;5022291;28;20485;-85
2023/08/01 03:26:28;;;;;;;22.65;12.93;;;;;;;20.06;68.22;94386.91;5023700;28;20201;-88
2023/08/01 03:28:57;;;;;;;8.82;5.07;;;;;;;20.04;68.53;94388.28;5025189;28;20230;-89
2023/08/01 03:31:23;;;;;;;7.20;3.63;;;;;;;20.35;68.82;94453.75;5018561;28;20448;-91
2023/08/01 03:33:49;;;;;;;7.67;3.63;;;;;;;20.17;69.03;94447.19;5021553;28;20453;-92
2023/08/01 03:36:14;;;;;;;15.48;9.35;;;;;;;20.09;68.95;94429.09;5022182;28;20648;-92
2023/08/01 03:38:40;;;;;;;16.00;7.70;;;;;;;19.62;69.34;94354.16;5022280;28;20909;-91
2023/08/01 03:41:06;;;;;;;15.23;7.63;;;;;;;19.98;69.89;94416.88;5018490;28;20912;-91
2023/08/01 03:43:31;;;;;;;15.33;7.70;;;;;;;19.98;69.29;94407.00;5022443;28;20423;-91
2023/08/01 03:45:57;;;;;;;15.18;7.60;;;;;;;20.50;68.81;94466.19;5018781;28;20458;-91
2023/08/01 03:48:23;;;;;;;8.63;4.13;;;;;;;20.48;68.17;94447.78;5024918;28;20220;-91
2023/08/01 03:50:48;;;;;;;5.50;2.90;;;;;;;19.95;68.20;94348.00;5021514;28;20184;-91
2023/08/01 03:53:14;;;;;;;10.55;3.47;;;;;;;20.82;67.84;94479.00;5024318;28;20184;-92
2023/08/01 03:55:44;;;;;;;8.65;3.10;;;;;;;20.30;68.00;94384.28;5024676;28;20172;-92
2023/08/01 03:58:10;;;;;;;6.85;2.88;;;;;;;20.48;67.96;94407.66;5039543;28;20187;-92
2023/08/01 04:00:35;;;;;;;5.13;2.75;;;;;;;20.21;68.53;94373.41;5023418;28;20675;-92
2023/08/01 04:03:01;;;;;;;6.47;2.80;;;;;;;20.17;68.86;94369.69;5019642;28;20178;-92
2023/08/01 04:05:30;;;;;;;5.78;3.40;;;;;;;20.54;68.84;94411.06;5022336;28;20242;-92
2023/08/01 04:07:59;;;;;;;13.57;7.65;;;;;;;20.86;68.50;94440.66;5024253;28;20922;-92
2023/08/01 04:10:24;;;;;;;17.75;5.38;;;;;;;21.28;68.58;94471.25;5026237;28;20164;-92
2023/08/01 04:12:50;;;;;;;21.10;10.48;;;;;;;20.99;67.52;94391.81;5024434;28;20180;-92
2023/08/01 04:15:15;;;;;;;10.55;7.07;;;;;;;21.50;66.80;94460.00;5021729;28;20255;-92
2023/08/01 04:17:47;;;;;;;11.07;4.05;;;;;;;21.41;66.78;94428.50;5022804;28;20176;-92
2023/08/01 04:20:13;;;;;;;5.68;3.30;;;;;;;21.66;66.28;94467.53;5025905;28;20176;-92
2023/08/01 04:22:38;;;;;;;6.75;2.97;;;;;;;21.48;65.57;94438.06;5020224;28;20172;-90
2023/08/01 04:25:05;;;;;;;8.57;2.75;;;;;;;22.03;65.38;94531.13;5019433;28;20188;-89
2023/08/01 04:27:30;;;;;;;12.18;3.55;;;;;;;22.07;65.45;94520.59;5022330;28;20171;-87
2023/08/01 04:29:56;;;;;;;7.53;3.10;;;;;;;21.94;65.78;94475.72;5015171;28;20231;-88
2023/08/01 04:32:22;;;;;;;7.70;4.10;;;;;;;21.93;64.93;94431.25;5020728;28;20559;-90
2023/08/01 04:34:47;;;;;;;8.68;3.95;;;;;;;22.20;64.30;94437.53;5025363;28;20194;-91
2023/08/01 04:37:13;;;;;;;6.20;3.10;;;;;;;22.86;63.43;94495.44;5023451;28;20184;-91
2023/08/01 04:39:39;;;;;;;4.68;2.90;;;;;;;22.60;62.22;94394.97;5021838;28;20178;-91
2023/08/01 04:42:05;;;;;;;6.13;2.70;;;;;;;23.38;61.10;94465.72;5022368;28;20181;-91
2023/08/01 04:44:30;;;;;;;5.00;2.83;;;;;;;23.77;59.94;94466.00;5020823;28;20632;-90
2023/08/01 04:46:56;;;;;;;7.68;4.93;;;;;;;23.43;58.25;94368.88;5020841;28;20267;-91
2023/08/01 04:49:22;;;;;;;6.97;3.25;;;;;;;24.28;58.20;94457.56;5021212;28;20223;-91
2023/08/01 04:51:49;;;;;;;6.00;3.00;;;;;;;24.43;57.28;94427.56;5020378;28;20233;-91
2023/08/01 04:54:15;;;;;;;10.13;6.35;;;;;;;24.68;55.85;94396.50;5021682;28;20176;-91
2023/08/01 04:56:41;;;;;;;6.00;3.08;;;;;;;25.36;54.85;94440.16;5020568;28;20176;-90
2023/08/01 04:59:06;;;;;;;5.30;3.35;;;;;;;26.02;53.55;94506.47;5023202;28;20180;-91
2023/08/01 05:01:35;;;;;;;7.72;3.92;;;;;;;25.53;52.16;94373.59;5021431;28;20665;-91
2023/08/01 05:04:00;;;;;;;5.93;2.45;;;;;;;26.83;50.27;94500.41;5019627;28;20651;-91
2023/08/01 05:06:27;;;;;;;7.50;5.18;;;;;;;26.51;49.36;94382.91;5023216;28;20193;-91
2023/08/01 05:08:53;;;;;;;4.63;2.80;;;;;;;27.67;49.33;94500.47;5020610;28;20189;-91
2023/08/01 05:11:19;;;;;;;13.07;9.15;;;;;;;27.80;48.33;94441.81;5019423;28;20177;-90
2023/08/01 05:13:44;;;;;;;7.75;4.78;;;;;;;28.21;45.90;94438.31;5023569;28;20164;-91
2023/08/01 05:16:10;;;;;;;4.97;2.58;;;;;;;28.75;45.83;94458.03;5020234;28;20176;-90
2023/08/01 05:18:35;;;;;;;6.90;3.15;;;;;;;29.34;44.71;94473.16;5019193;28;20168;-91
2023/08/01 05:21:01;;;;;;;5.78;3.78;;;;;;;29.94;43.22;94475.91;5026145;28;20218;-89
2023/08/01 05:23:26;;;;;;;6.03;2.20;;;;;;;30.52;41.48;94489.25;5020434;28;20563;-90
2023/08/01 05:25:52;;;;;;;6.88;2.55;;;;;;;31.05;41.29;94504.28;5024017;28;20670;-88
2023/08/01 05:28:17;;;;;;;6.82;2.90;;;;;;;31.10;39.66;94476.88;5019547;28;20187;-91
2023/08/01 05:30:43;;;;;;;9.80;3.40;;;;;;;31.49;39.69;94486.78;5021889;28;20706;-90
2023/08/01 05:33:11;;;;;;;6.15;2.75;;;;;;;31.80;38.04;94483.28;5019048;28;20183;-91
2023/08/01 05:35:37;;;;;;;3.30;2.60;;;;;;;32.19;37.76;94494.25;5018224;28;20175;-91
2023/08/01 05:38:02;;;;;;;7.78;2.63;;;;;;;32.77;37.60;94508.75;5014080;28;20168;-91
2023/08/01 05:40:28;;;;;;;3.53;2.33;;;;;;;33.14;36.71;94472.78;5018481;28;20187;-91
2023/08/01 05:42:57;;;;;;;2.80;2.17;;;;;;;33.91;34.88;94517.00;5020092;28;20625;-91
2023/08/01 05:45:22;;;;;;;8.65;2.95;;;;;;;34.14;33.35;94461.53;5023686;28;20227;-91
2023/08/01 05:47:48;;;;;;;6.25;2.72;;;;;;;34.79;32.88;94535.84;5020538;28;20283;-91
2023/08/01 05:50:13;;;;;;;2.67;1.92;;;;;;;34.01;33.20;94420.75;5017210;28;20215;-87
2023/08/01 05:52:40;;;;;;;4.13;2.92;;;;;;;34.45;33.77;94459.22;5022478;28;20168;-89
2023/08/01 05:55:06;;;;;;;11.02;7.40;;;;;;;34.97;32.07;94486.81;5017574;28;20168;-89
2023/08/01 05:57:34;;;;;;;7.55;2.58;;;;;;;34.52;33.63;94466.72;5018635;28;20598;-89
2023/08/01 06:00:00;;;;;;;5.93;3.22;;;;;;;34.79;32.74;94501.06;5017844;28;20167;-88
2023/08/01 06:02:26;;;;;;;5.25;2.67;;;;;;;34.65;33.26;94450.84;5021020;28;20187;-89
2023/08/01 06:04:51;;;;;;;6.25;2.20;;;;;;;34.66;32.61;94441.50;5015609;28;20198;-88
2023/08/01 06:07:22;;;;;;;2.92;2.30;;;;;;;34.53;32.49;94423.75;5017798;28;20184;-89
2023/08/01 06:09:50;;;;;;;9.05;3.38;;;;;;;34.84;31.21;94453.44;5019366;28;20262;-88
2023/08/01 06:12:16;;;;;;;4.35;1.83;;;;;;;35.18;31.75;94530.84;5018532;28;20180;-89
2023/08/01 06:14:42;;;;;;;5.40;3.72;;;;;;;34.58;31.85;94489.88;5020480;28;20644;-89
2023/08/01 06:17:07;;;;;;;6.05;2.60;;;;;;;33.95;33.86;94435.91;5016949;28;20179;-88
2023/08/01 06:19:33;;;;;;;7.72;3.95;;;;;;;34.10;33.39;94524.31;5020242;28;20179;-89
2023/08/01 06:22:01;;;;;;;2.47;2.08;;;;;;;33.38;34.82;94467.00;5019461;28;20177;-87
2023/08/01 06:24:27;;;;;;;4.63;2.30;;;;;;;33.00;34.33;94453.44;5017082;28;20161;-89
2023/08/01 06:26:52;;;;;;;9.32;2.25;;;;;;;32.92;35.82;94480.59;5023902;28;20168;-89
2023/08/01 06:29:18;;;;;;;3.38;2.45;;;;;;;32.83;35.16;94488.22;5025996;28;20176;-89
2023/08/01 06:31:45;;;;;;;2.33;1.92;;;;;;;32.69;35.19;94511.66;5023353;28;20619;-88
2023/08/01 06:34:10;;;;;;;7.10;2.13;;;;;;;32.20;36.40;94463.16;5024693;28;20613;-89
2023/08/01 06:36:36;;;;;;;4.20;2.70;;;;;;;31.64;36.80;94389.16;5019769;28;20161;-86
2023/08/01 06:39:01;;;;;;;2.45;1.90;;;;;;;31.60;36.33;94399.94;5026060;28;20646;-90
2023/08/01 06:41:27;;;;;;;2.88;1.80;;;;;;;31.58;36.59;94423.19;5021899;28;20234;-90
2023/08/01 06:43:52;;;;;;;4.38;2.85;;;;;;;31.94;35.75;94495.63;5027247;28;20176;-89
2023/08/01 06:46:18;;;;;;;4.22;3.60;;;;;;;31.37;36.75;94465.13;5023078;28;20227;-88
2023/08/01 06:48:44;;;;;;;6.10;5.20;;;;;;;31.37;36.33;94492.31;5025265;28;20222;-89
2023/08/01 06:51:09;;;;;;;4.88;3.03;;;;;;;31.01;38.35;94459.88;5027422;28;20176;-88
2023/08/01 06:53:35;;;;;;;2.65;1.95;;;;;;;31.03;38.55;94490.25;5021448;28;20259;-84
2023/08/01 06:56:00;;;;;;;3.38;1.85;;;;;;;30.50;38.47;94382.78;5017708;28;20165;-83
2023/08/01 06:58:25;;;;;;;4.97;1.80;;;;;;;30.52;37.28;94418.59;5021368;28;20271;-83
2023/08/01 07:00:51;;;;;;;10.45;2.72;;;;;;;30.75;39.61;94457.66;5023406;28;20168;-85
2023/08/01 07:03:16;;;;;;;4.82;2.53;;;;;;;30.98;37.54;94468.72;5024918;28;20187;-82
2023/08/01 07:05:42;;;;;;;4.72;2.58;;;;;;;30.96;37.59;94463.63;5021378;28;20246;-82
2023/08/01 07:08:07;;;;;;;12.32;2.45;;;;;;;31.24;39.11;94500.91;5022478;28;20650;-84
2023/08/01 07:10:36;;;;;;;6.47;3.75;;;;;;;31.17;38.37;94458.00;5035044;28;20157;-83
2023/08/01 07:13:04;;;;;;;4.70;2.03;;;;;;;31.50;37.55;94473.97;5028999;28;20172;-86
2023/08/01 07:15:32;;;;;;;5.35;1.90;;;;;;;31.52;37.90;94489.94;5018001;28;20185;-84
2023/08/01 07:17:58;;;;;;;6.10;1.95;;;;;;;31.26;37.42;94466.78;5025398;28;20255;-90
2023/08/01 07:20:23;;;;;;;6.90;1.65;;;;;;;31.21;38.25;94471.69;5018687;28;20330;-85
2023/08/01 07:22:48;;;;;;;3.67;2.00;;;;;;;30.51;38.69;94469.44;4977958;28;20237;-86
2023/08/01 07:25:15;;;;;;;4.63;1.95;;;;;;;30.68;39.41;94461.00;4964092;28;20204;-83
2023/08/01 07:27:40;;;;;;;6.72;2.03;;;;;;;31.04;39.94;94479.03;4962398;28;20587;-83
2023/08/01 07:30:06;;;;;;;4.90;2.42;;;;;;;31.33;38.07;94463.44;4963711;28;20178;-80
2023/08/01 07:32:32;;;;;;;4.93;1.80;;;;;;;31.42;39.06;94481.16;4966571;28;20637;-79
2023/08/01 07:34:57;;;;;;;3.65;2.20;;;;;;;31.46;40.08;94471.16;4966553;28;20166;-84
2023/08/01 07:37:22;;;;;;;5.43;2.10;;;;;;;31.76;39.56;94441.53;4963453;28;20259;-81
2023/08/01 07:39:49;;;;;;;3.97;2.63;;;;;;;32.15;38.13;94444.34;4963819;28;20174;-84
2023/08/01 07:42:15;;;;;;;6.30;3.28;;;;;;;32.56;38.05;94438.19;4963679;28;20249;-87
2023/08/01 07:44:40;;;;;;;3.20;1.83;;;;;;;32.67;36.25;94451.25;4962511;28;20184;-85
2023/08/01 07:47:06;;;;;;;13.98;3.60;;;;;;;32.82;37.91;94473.00;4965334;28;20175;-83
2023/08/01 07:49:31;;;;;;;8.60;3.20;;;;;;;32.34;37.20;94463.47;4964047;28;20233;-85
2023/08/01 07:51:56;;;;;;;4.20;2.75;;;;;;;31.95;37.64;94487.09;4966118;28;20181;-87
2023/08/01 07:54:23;;;;;;;7.13;2.25;;;;;;;31.62;38.03;94465.72;4972302;28;20174;-90
2023/08/01 07:56:49;;;;;;;2.00;1.80;;;;;;;31.60;38.15;94481.59;4949773;28;20285;-85
2023/08/01 07:59:15;;;;;;;7.88;2.88;;;;;;;31.11;38.20;94440.38;4968042;28;20187;-84
2023/08/01 08:01:41;;;;;;;7.97;2.30;;;;;;;30.68;39.08;94452.03;4964581;28;20259;-84
2023/08/01 08:04:09;;;;;;;6.53;2.40;;;;;;;30.07;40.01;94456.88;4969960;28;20224;-84
2023/08/01 08:06:35;;;;;;;2.95;2.25;;;;;;;29.51;42.83;94449.34;4967709;28;20232;-85
2023/08/01 08:09:01;;;;;;;33.78;4.15;;;;;;;29.07;44.46;94388.63;4967266;28;20174;-84
2023/08/01 08:11:26;;;;;;;11.05;4.25;;;;;;;29.50;43.71;94319.47;4946544;28;20236;-85
2023/08/01 08:13:52;;;;;;;6.13;4.57;;;;;;;30.28;40.08;94414.03;4960850;28;20182;-85
2023/08/01 08:16:17;;;;;;;7.63;3.28;;;;;;;30.56;40.33;94376.78;4963068;28;20204;-85
2023/08/01 08:18:43;;;;;;;4.40;2.40;;;;;;;30.17;40.88;94345.84;4962007;28;20175;-84
2023/08/01 08:21:09;;;;;;;3.83;2.10;;;;;;;31.04;39.96;94408.31;4962633;28;20370;-86
2023/08/01 08:23:34;;;;;;;4.53;2.35;;;;;;;31.22;40.26;94402.53;4962759;28;20205;-85
2023/08/01 08:26:00;;;;;;;5.82;2.35;;;;;;;31.77;39.52;94412.38;4964406;28;20209;-84
2023/08/01 08:28:30;;;;;;;3.90;2.20;;;;;;;32.20;37.13;94393.09;4965880;28;20178;-85
2023/08/01 08:30:56;;;;;;;4.32;1.90;;;;;;;31.96;37.19;94403.44;4943499;29;20254;-85
2023/08/01 08:33:22;;;;;;;4.15;2.33;;;;;;;31.68;38.79;94374.47;4961808;28;20178;-80
2023/08/01 08:35:48;;;;;;;4.60;2.45;;;;;;;32.04;36.77;94397.00;4962058;28;20170;-81
2023/08/01 08:38:16;;;;;;;4.38;2.60;;;;;;;31.64;38.56;94397.31;4963206;28;20167;-84
2023/08/01 08:40:48;;;;;;;8.75;2.63;;;;;;;31.77;37.92;94401.50;4960670;28;20658;-83
2023/08/01 08:43:16;;;;;;;6.90;2.10;;;;;;;31.63;39.36;94352.97;4969927;28;20166;-84
2023/08/01 08:45:48;;;;;;;3.13;2.03;;;;;;;32.18;37.96;94379.03;4949787;28;20193;-80
2023/08/01 08:48:19;;;;;;;2.88;2.10;;;;;;;32.37;37.71;94418.31;4965130;28;20210;-80
2023/08/01 08:50:46;;;;;;;6.13;2.30;;;;;;;31.82;38.57;94322.25;4962835;28;20199;-81
2023/08/01 08:53:12;;;;;;;6.80;2.50;;;;;;;31.60;38.64;94307.38;4946569;28;20182;-80
2023/08/01 08:55:41;;;;;;;4.53;2.25;;;;;;;31.89;38.62;94314.22;4962169;28;20249;-81
2023/08/01 08:58:08;;;;;;;5.15;1.92;;;;;;;32.08;38.26;94302.53;4963513;28;20212;-81
2023/08/01 09:00:36;;;;;;;5.03;2.22;;;;;;;32.47;37.08;94320.41;4944849;28;20181;-83
2023/08/01 09:03:03;;;;;;;4.65;2.38;;;;;;;31.99;36.52;94299.25;4949071;28;20177;-84
2023/08/01 09:05:34;;;;;;;3.45;1.95;;;;;;;32.52;36.85;94406.56;4961845;28;20198;-82
2023/08/01 09:08:04;;;;;;;3.50;2.15;;;;;;;32.38;37.73;94363.47;4947413;28;20346;-83
2023/08/01 09:10:31;;;;;;;3.13;2.20;;;;;;;32.34;37.99;94316.28;4964305;28;20265;-82
2023/08/01 09:13:13;;;;;;;2.88;2.20;;;;;;;32.85;36.62;94397.84;4948327;28;20174;-84
2023/08/01 09:15:42;;;;;;;5.15;2.35;;;;;;;32.34;36.36;94397.25;4964749;28;20186;-87
2023/08/01 09:18:08;;;;;;;5.00;2.35;;;;;;;31.63;38.59;94374.75;4973243;28;20169;-85
2023/08/01 09:20:47;;;;;;;4.55;2.53;;;;;;;31.34;39.09;94359.69;4956695;28;20681;-88
2023/08/01 09:23:14;;;;;;;3.22;2.30;;;;;;;31.61;39.90;94370.78;4970403;28;20171;-85
2023/08/01 09:25:40;;;;;;;4.00;2.50;;;;;;;32.09;39.79;94393.97;4954421;29;20688;-84
2023/08/01 09:28:19;;;;;;;5.47;2.55;;;;;;;32.07;38.07;94367.13;4954438;29;20173;-84
2023/08/01 09:30:54;;;;;;;3.58;2.45;;;;;;;32.41;38.59;94384.56;4973641;28;20181;-85
2023/08/01 09:33:19;;;;;;;4.68;2.55;;;;;;;32.63;38.41;94387.66;4973976;28;20176;-85
2023/08/01 09:35:45;;;;;;;7.57;2.63;;;;;;;32.70;38.69;94388.59;4973653;28;20157;-87
2023/08/01 09:38:15;;;;;;;3.58;2.10;;;;;;;32.67;37.44;94383.06;4973931;28;20529;-83
2023/08/01 09:40:41;;;;;;;5.03;2.85;;;;;;;32.67;37.31;94385.78;4973249;28;20260;-84
2023/08/01 09:43:07;;;;;;;5.57;2.70;;;;;;;32.43;37.00;94379.53;4973875;28;20165;-84
2023/08/01 09:45:34;;;;;;;3.85;2.45;;;;;;;32.34;38.11;94372.72;4973499;28;20205;-84
2023/08/01 09:48:00;;;;;;;7.10;3.00;;;;;;;31.99;37.28;94359.16;4956179;28;20185;-85
2023/08/01 09:50:25;;;;;;;5.10;2.67;;;;;;;31.79;38.20;94366.53;4973804;28;20158;-84
2023/08/01 09:52:53;;;;;;;9.07;3.17;;;;;;;31.48;38.92;94348.34;4971592;28;20188;-84
2023/08/01 09:55:25;;;;;;;3.97;2.70;;;;;;;31.66;39.41;94371.31;4972148;28;20189;-85
2023/08/01 09:57:54;;;;;;;5.15;2.35;;;;;;;31.53;38.24;94349.97;4969920;28;20536;-85
2023/08/01 10:00:19;;;;;;;6.78;2.38;;;;;;;31.62;38.88;94359.56;4967379;28;20189;-84
2023/08/01 10:02:45;;;;;;;5.88;2.50;;;;;;;31.54;38.65;94330.56;4972186;28;20644;-82
2023/08/01 10:05:12;;;;;;;4.00;2.78;;;;;;;31.46;38.03;94332.38;4966187;28;20198;-83
2023/08/01 10:07:41;;;;;;;9.23;2.95;;;;;;;31.44;38.62;94342.81;4970813;28;20645;-82
2023/08/01 10:10:07;;;;;;;5.60;2.70;;;;;;;31.25;39.04;94337.31;4974880;28;20268;-82
2023/08/01 10:12:33;;;;;;;4.68;3.20;;;;;;;31.23;39.68;94339.59;4963757;28;20317;-83
2023/08/01 10:14:59;;;;;;;3.17;2.70;;;;;;;31.15;39.66;94337.06;4970705;28;20198;-83
2023/08/01 10:17:26;;;;;;;7.40;2.72;;;;;;;30.83;38.54;94303.66;4971447;28;20200;-82
2023/08/01 10:19:56;;;;;;;2.58;2.30;;;;;;;30.74;39.76;94323.66;4967946;28;20638;-82
2023/08/01 10:22:22;;;;;;;5.90;2.35;;;;;;;30.72;39.15;94330.56;4966322;28;20178;-81
2023/08/01 10:24:48;;;;;;;7.75;2.95;;;;;;;30.73;39.76;94335.66;4968240;28;20181;-81
2023/08/01 10:27:15;;;;;;;3.92;2.50;;;;;;;30.48;40.52;94319.84;4967593;28;20264;-82
2023/08/01 10:29:42;;;;;;;4.18;2.67;;;;;;;30.37;41.41;94316.84;4963978;28;20186;-80
2023/08/01 10:32:08;;;;;;;7.28;2.78;;;;;;;30.44;40.51;94316.25;4970583;28;20666;-83
2023/08/01 10:34:33;;;;;;;3.35;2.25;;;;;;;30.42;39.55;94316.59;4965886;28;20185;-82
2023/08/01 10:36:59;;;;;;;6.32;2.65;;;;;;;30.09;38.78;94307.97;4966292;28;20192;-82
2023/08/01 10:39:27;;;;;;;4.35;2.13;;;;;;;29.82;39.44;94309.53;4964917;28;20194;-83
2023/08/01 10:42:01;;;;;;;6.03;2.35;;;;;;;29.78;40.69;94274.13;4969237;28;20261;-82
2023/08/01 10:44:27;;;;;;;15.25;2.55;;;;;;;29.98;39.15;94288.69;4968529;28;20680;-82
2023/08/01 10:46:52;;;;;;;4.57;2.95;;;;;;;29.93;40.20;94297.03;4964892;28;20209;-82
2023/08/01 10:49:21;;;;;;;4.57;2.58;;;;;;;29.89;39.04;94294.22;4966072;28;20243;-83
2023/08/01 10:51:47;;;;;;;2.88;2.20;;;;;;;29.95;39.63;94281.22;4972745;28;20182;-81
2023/08/01 10:54:21;;;;;;;7.35;2.88;;;;;;;30.14;41.57;94275.13;4969248;28;20240;-82
2023/08/01 10:56:47;;;;;;;7.10;3.22;;;;;;;30.16;40.07;94270.94;4970541;28;20186;-82
2023/08/01 10:59:14;;;;;;;4.72;2.30;;;;;;;30.36;40.15;94282.66;4969913;28;20269;-84
2023/08/01 11:01:51;;;;;;;4.78;3.50;;;;;;;30.52;39.38;94275.38;4970308;28;20182;-83
2023/08/01 11:04:21;;;;;;;6.22;2.65;;;;;;;30.43;39.03;94263.06;4965605;28;20276;-82
2023/08/01 11:06:49;;;;;;;4.65;3.08;;;;;;;30.49;37.64;94262.44;4973161;28;20665;-83
2023/08/01 11:09:28;;;;;;;3.78;2.33;;;;;;;30.59;37.60;94256.50;4968206;28;20185;-82
2023/08/01 11:11:58;;;;;;;4.45;2.95;;;;;;;30.82;37.36;94264.00;4951146;28;20186;-82
2023/08/01 11:14:26;;;;;;;2.33;2.03;;;;;;;30.94;37.85;94253.84;4966299;28;20612;-83
2023/08/01 11:16:54;;;;;;;4.13;2.28;;;;;;;31.04;37.38;94250.56;4964520;28;20646;-83
2023/08/01 11:19:22;;;;;;;3.30;2.30;;;;;;;31.13;36.05;94252.31;4965335;28;20276;-83
2023/08/01 11:21:48;;;;;;;2.83;2.45;;;;;;;31.20;36.41;94245.09;4962833;28;20661;-83
2023/08/01 11:24:13;;;;;;;2.55;2.20;;;;;;;30.78;30.51;94231.31;4969380;28;20193;-83
2023/08/01 11:26:43;;;;;;;3.10;1.88;;;;;;;30.77;30.04;94240.63;4966983;28;20583;-83
2023/08/01 11:29:11;;;;;;;3.25;1.90;;;;;;;30.62;29.79;94225.09;4976512;28;20185;-84